^^
Datos históricos de la estación: Murcia-Puente Tocinos
Diario Informe para Octubre 8, 2019 Unidades:  Métrico    Ingés   Ambas
Diario Semanal Mensual Anual
  Máxima: Mínima: Promedio:
Temperatura: 26.8 °C 20.6 °C 22.9 °C
Punto de rocio: 18.5 °C 16.2 °C 17.2 °C
Humedad: 83% 54% 71%
Velocidad viento: 14.8km/h 0km/h 6.2km/h
Racha viento: 26.2km/h - -
Viento- - ESE
Presión: 1019.2 hPa 1015.7 hPa -
Precipitación: 0.0 mm    
 
 
Tabla de datos para Octubre 8, 2019
Hora Temperatura Punto de rocio Presión Viento Velocidad viento Racha viento Humedad Intensidad lluvia(por hora) Nubes
00:04 21.7 °C 17.5 °C 1017.1 hPa NE 8.4 km/h 14.8 km/h 77.5% 0.0 mm
00:09 21.6 °C 17.6 °C 1016.9 hPa NE 8.2 km/h 14.5 km/h 78% 0.0 mm
00:14 21.4 °C 17.5 °C 1016.9 hPa NE 7.6 km/h 14.5 km/h 78.3% 0.0 mm
00:19 21.3 °C 17.5 °C 1017.0 hPa NE 7.7 km/h 13 km/h 79% 0.0 mm
00:24 21.3 °C 17.4 °C 1017.0 hPa NE 8.4 km/h 12.9 km/h 79% 0.0 mm
00:29 21.2 °C 17.6 °C 1017.0 hPa NE 8.2 km/h 13 km/h 80% 0.0 mm
00:34 21.2 °C 17.6 °C 1017.0 hPa NE 7.6 km/h 13.7 km/h 80% 0.0 mm
00:39 21.2 °C 17.6 °C 1017.0 hPa NE 7.9 km/h 14.8 km/h 80% 0.0 mm
00:44 21.2 °C 17.6 °C 1017.0 hPa NE 9.5 km/h 16.7 km/h 80% 0.0 mm
00:49 21.2 °C 17.6 °C 1017.1 hPa NE 9.4 km/h 16.1 km/h 80% 0.0 mm
00:54 21.2 °C 17.6 °C 1017.1 hPa NNE 8.7 km/h 11.3 km/h 80% 0.0 mm
00:59 21.1 °C 17.5 °C 1017.1 hPa NNE 8.1 km/h 9.7 km/h 80% 0.0 mm
01:04 21.1 °C 17.5 °C 1017.1 hPa NNE 5.8 km/h 10 km/h 80% 0.0 mm
01:09 21 °C 17.4 °C 1017.0 hPa NE 5.9 km/h 11.1 km/h 80% 0.0 mm
01:14 21 °C 17.4 °C 1017.0 hPa NNE 6.4 km/h 11.3 km/h 80% 0.0 mm
01:19 20.9 °C 17.5 °C 1017.0 hPa NE 6.3 km/h 11.1 km/h 80.8% 0.0 mm
01:24 20.9 °C 17.5 °C 1016.8 hPa NNE 5.8 km/h 11.3 km/h 81% 0.0 mm
01:29 20.9 °C 17.5 °C 1016.8 hPa NNE 5.6 km/h 9.7 km/h 81% 0.0 mm
01:34 20.8 °C 17.5 °C 1016.8 hPa NE 4.7 km/h 9.3 km/h 81% 0.0 mm
01:39 20.8 °C 17.4 °C 1016.8 hPa ENE 4.7 km/h 9.7 km/h 81% 0.0 mm
01:44 20.8 °C 17.4 °C 1016.8 hPa NE 5 km/h 8.4 km/h 81% 0.0 mm
01:49 20.8 °C 17.4 °C 1016.8 hPa ENE 5 km/h 8.4 km/h 81% 0.0 mm
01:54 20.7 °C 17.4 °C 1016.8 hPa NNE 5 km/h 10 km/h 81.2% 0.0 mm
01:59 20.7 °C 17.5 °C 1016.8 hPa NNE 5 km/h 9.7 km/h 81.8% 0.0 mm
02:04 20.7 °C 17.5 °C 1016.8 hPa NE 5 km/h 9.7 km/h 82% 0.0 mm
02:09 20.7 °C 17.5 °C 1016.8 hPa NNE 5 km/h 9.7 km/h 82% 0.0 mm
02:14 20.7 °C 17.5 °C 1016.8 hPa NNE 5 km/h 8 km/h 82% 0.0 mm
02:19 20.7 °C 17.5 °C 1016.8 hPa NNE 4.8 km/h 8 km/h 82% 0.0 mm
02:24 20.7 °C 17.4 °C 1016.8 hPa NNE 3.9 km/h 8 km/h 81.5% 0.0 mm
02:29 20.7 °C 17.3 °C 1016.8 hPa NE 4 km/h 10 km/h 81% 0.0 mm
02:34 20.7 °C 17.3 °C 1016.9 hPa NNE 4.7 km/h 9.7 km/h 81% 0.0 mm
02:39 20.7 °C 17.4 °C 1016.9 hPa NNE 4.7 km/h 8 km/h 81.4% 0.0 mm
02:44 20.7 °C 17.4 °C 1016.9 hPa NE 4.7 km/h 8 km/h 81.4% 0.0 mm
02:49 20.8 °C 17.5 °C 1016.9 hPa NE 4.5 km/h 8 km/h 81.4% 0.0 mm
02:54 20.8 °C 17.6 °C 1016.9 hPa NNE 3.9 km/h 8 km/h 82% 0.0 mm
02:59 20.8 °C 17.5 °C 1016.9 hPa NE 3.7 km/h 7.4 km/h 81.4% 0.0 mm
03:04 20.8 °C 17.4 °C 1017.1 hPa ENE 2.9 km/h 8 km/h 81% 0.0 mm
03:09 20.8 °C 17.4 °C 1017.1 hPa ENE 3.1 km/h 8 km/h 81% 0.0 mm
03:14 20.8 °C 17.5 °C 1017.1 hPa NE 3.9 km/h 7.4 km/h 81% 0.0 mm
03:19 20.9 °C 17.5 °C 1017.1 hPa NNO 3.7 km/h 8 km/h 81% 0.0 mm
03:24 20.9 °C 17.5 °C 1017.1 hPa NNO 3.2 km/h 6.4 km/h 81% 0.0 mm
03:29 20.9 °C 17.5 °C 1017.1 hPa NO 3.2 km/h 4.8 km/h 81% 0.0 mm
03:34 20.9 °C 17.5 °C 1017.1 hPa NNO 2.9 km/h 7.4 km/h 81% 0.0 mm
03:39 20.9 °C 17.5 °C 1017.1 hPa NNO 3 km/h 8 km/h 81% 0.0 mm
03:44 20.9 °C 17.5 °C 1017.1 hPa NNO 3.2 km/h 8 km/h 81% 0.0 mm
03:49 20.9 °C 17.5 °C 1017.1 hPa NNE 3.3 km/h 8 km/h 81% 0.0 mm
03:54 20.9 °C 17.5 °C 1016.9 hPa NNE 3.9 km/h 8.7 km/h 81% 0.0 mm
03:59 20.8 °C 17.4 °C 1016.9 hPa NNE 4.1 km/h 9.7 km/h 81% 0.0 mm
04:04 20.8 °C 17.4 °C 1017.0 hPa North 5 km/h 8 km/h 81% 0.0 mm
04:09 20.8 °C 17.4 °C 1017.0 hPa North 4.7 km/h 7.4 km/h 81% 0.0 mm
04:14 20.8 °C 17.4 °C 1017.0 hPa NE 3.2 km/h 8 km/h 81% 0.0 mm
04:19 20.8 °C 17.4 °C 1017.0 hPa NE 3.5 km/h 8 km/h 81% 0.0 mm
04:24 20.8 °C 17.4 °C 1017.0 hPa NE 4.7 km/h 8.4 km/h 81% 0.0 mm
04:29 20.7 °C 17.3 °C 1017.0 hPa NE 4.7 km/h 8 km/h 81% 0.0 mm
04:34 20.7 °C 17.4 °C 1017.0 hPa NE 4.6 km/h 8 km/h 81.1% 0.0 mm
04:39 20.7 °C 17.5 °C 1017.0 hPa NE 4.5 km/h 7.4 km/h 82% 0.0 mm
04:44 20.7 °C 17.5 °C 1017.0 hPa NE 3.9 km/h 8 km/h 82% 0.0 mm
04:49 20.7 °C 17.5 °C 1017.1 hPa NE 3.9 km/h 8 km/h 82% 0.0 mm
04:54 20.8 °C 17.6 °C 1017.1 hPa NE 3.9 km/h 5.6 km/h 82% 0.0 mm
04:59 20.8 °C 17.6 °C 1017.1 hPa NE 3.7 km/h 5.6 km/h 82% 0.0 mm
05:04 20.8 °C 17.6 °C 1017.1 hPa NE 2.9 km/h 4.8 km/h 82% 0.0 mm
05:09 20.9 °C 17.7 °C 1017.0 hPa NE 2.9 km/h 4.8 km/h 82% 0.0 mm
05:14 20.9 °C 17.7 °C 1017.0 hPa NE 2.9 km/h 3.9 km/h 82% 0.0 mm
05:19 20.9 °C 17.7 °C 1017.0 hPa NE 2.4 km/h 3.7 km/h 82% 0.0 mm
05:24 20.9 °C 17.7 °C 1017.0 hPa Calm   3.7 km/h 82% 0.0 mm
05:29 20.9 °C 17.6 °C 1017.0 hPa NE 0.5 km/h 5.8 km/h 81.6% 0.0 mm
05:34 20.9 °C 17.5 °C 1017.2 hPa NE 2.9 km/h 7.4 km/h 81% 0.0 mm
05:39 20.9 °C 17.5 °C 1017.2 hPa NE 3.1 km/h 8 km/h 81% 0.0 mm
05:44 20.8 °C 17.5 °C 1017.2 hPa NE 3.9 km/h 8 km/h 81.5% 0.0 mm
05:49 20.8 °C 17.6 °C 1017.3 hPa NE 3.7 km/h 7.4 km/h 82% 0.0 mm
05:54 20.8 °C 17.6 °C 1017.3 hPa ENE 2.9 km/h 8 km/h 81.8% 0.0 mm
05:59 20.8 °C 17.6 °C 1017.3 hPa ENE 3.1 km/h 7.4 km/h 82% 0.0 mm
06:04 20.8 °C 17.6 °C 1017.3 hPa ENE 3.9 km/h 8 km/h 82% 0.0 mm
06:09 20.8 °C 17.6 °C 1017.2 hPa NE 3.7 km/h 8 km/h 82% 0.0 mm
06:14 20.8 °C 17.6 °C 1017.2 hPa NE 3.2 km/h 5.6 km/h 82% 0.0 mm
06:19 20.8 °C 17.6 °C 1017.3 hPa NE 3.1 km/h 4.8 km/h 82% 0.0 mm
06:24 20.8 °C 17.5 °C 1017.3 hPa NE 2.2 km/h 5.6 km/h 81.6% 0.0 mm
06:29 20.8 °C 17.4 °C 1017.3 hPa NNE 2.2 km/h 5.8 km/h 81% 0.0 mm
06:34 20.8 °C 17.5 °C 1017.4 hPa NNE 2.2 km/h 6.4 km/h 81% 0.0 mm
06:39 20.9 °C 17.5 °C 1017.4 hPa NNE 1.9 km/h 3.9 km/h 81% 0.0 mm
06:44 20.9 °C 17.5 °C 1017.4 hPa Calm   3.9 km/h 80.8% 0.0 mm
06:49 20.9 °C 17.3 °C 1017.6 hPa NNE 0.4 km/h 5.8 km/h 80% 0.0 mm
06:54 20.9 °C 17.3 °C 1017.6 hPa NE 2.2 km/h 7.4 km/h 80% 0.0 mm
06:59 20.9 °C 17.3 °C 1017.6 hPa NE 2.8 km/h 8 km/h 80% 0.0 mm
07:04 20.9 °C 17.3 °C 1017.7 hPa NE 4.6 km/h 8 km/h 80% 0.0 mm
07:09 20.8 °C 17.2 °C 1017.7 hPa NE 4.5 km/h 8 km/h 80% 0.0 mm
07:14 20.8 °C 17.2 °C 1017.7 hPa NE 3.9 km/h 7.4 km/h 80% 0.0 mm
07:19 20.8 °C 17.2 °C 1017.8 hPa NE 3.7 km/h 8 km/h 80% 0.0 mm
07:24 20.8 °C 17.2 °C 1017.8 hPa NE 3.2 km/h 7.4 km/h 80% 0.0 mm
07:29 20.8 °C 17.3 °C 1017.8 hPa NE 3.2 km/h 8 km/h 80.2% 0.0 mm
07:34 20.8 °C 17.4 °C 1018.0 hPa NE 3.2 km/h 8.4 km/h 81% 0.0 mm
07:39 20.8 °C 17.4 °C 1018.0 hPa NE 3.5 km/h 8 km/h 81% 0.0 mm
07:44 20.8 °C 17.4 °C 1018.0 hPa NE 5 km/h 8 km/h 81% 0.0 mm
07:49 20.7 °C 17.4 °C 1018.0 hPa NE 4.7 km/h 6.4 km/h 81.1% 0.0 mm
07:54 20.7 °C 17.5 °C 1018.0 hPa NE 3.2 km/h 5.6 km/h 82% 0.0 mm
07:59 20.7 °C 17.5 °C 1018.0 hPa NE 3 km/h 4.8 km/h 82% 0.0 mm
08:04 20.7 °C 17.5 °C 1018.0 hPa NE 2.2 km/h 4.7 km/h 82% 0.0 mm
08:09 20.7 °C 17.5 °C 1018.0 hPa NE 2.4 km/h 5.6 km/h 82% 0.0 mm
08:14 20.7 °C 17.5 °C 1018.0 hPa NE 2.9 km/h 5.6 km/h 82% 0.0 mm
08:19 20.6 °C 17.4 °C 1018.0 hPa NE 3 km/h 6.4 km/h 82% 0.0 mm
08:24 20.6 °C 17.4 °C 1018.0 hPa NE 3.2 km/h 8 km/h 82% 0.0 mm
08:29 20.6 °C 17.6 °C 1018.0 hPa NE 3.3 km/h 8 km/h 82.7% 0.0 mm
08:34 20.6 °C 17.6 °C 1018.2 hPa NE 3.9 km/h 8 km/h 83% 0.0 mm
08:39 20.6 °C 17.6 °C 1018.2 hPa NE 3.7 km/h 8 km/h 83% 0.0 mm
08:44 20.6 °C 17.5 °C 1018.2 hPa NE 3.2 km/h 6.4 km/h 82.4% 0.0 mm
08:49 20.7 °C 17.5 °C 1018.2 hPa NE 3 km/h 6.4 km/h 82% 0.0 mm
08:54 20.8 °C 17.6 °C 1018.2 hPa NE 2.2 km/h 5.8 km/h 81.8% 0.0 mm
08:59 21 °C 17.6 °C 1018.2 hPa ENE 2.4 km/h 7.4 km/h 81% 0.0 mm
09:04 21.2 °C 17.6 °C 1018.5 hPa ENE 2.9 km/h 8 km/h 80.1% 0.0 mm
09:09 21.3 °C 17.6 °C 1018.5 hPa ENE 2.9 km/h 6.4 km/h 79.8% 0.0 mm
09:14 21.3 °C 17.5 °C 1018.5 hPa ENE 2.9 km/h 4.8 km/h 79.1% 0.0 mm
09:19 21.4 °C 17.7 °C 1018.5 hPa ENE 2.4 km/h 3.9 km/h 79.5% 0.0 mm
09:24 21.7 °C 17.7 °C 1018.5 hPa Calm   5.6 km/h 78.1% 0.0 mm
09:29 21.7 °C 17.7 °C 1018.5 hPa NNE 0.4 km/h 5.8 km/h 78% 0.0 mm
09:34 21.7 °C 17.7 °C 1018.8 hPa North 2.2 km/h 6.4 km/h 78% 0.0 mm
09:39 21.7 °C 17.7 °C 1018.8 hPa NO 2.4 km/h 7.4 km/h 78% 0.0 mm
09:44 21.7 °C 17.7 °C 1018.8 hPa NO 3.2 km/h 8 km/h 78% 0.0 mm
09:49 21.6 °C 17.6 °C 1018.9 hPa NO 3.2 km/h 8 km/h 78% 0.0 mm
09:54 21.7 °C 17.7 °C 1018.9 hPa NO 2.9 km/h 4.8 km/h 78% 0.0 mm
09:59 21.8 °C 17.8 °C 1018.9 hPa NO 2.3 km/h 3.7 km/h 78% 0.0 mm
10:04 22.1 °C 17.9 °C 1019.0 hPa Calm   5 km/h 77% 0.0 mm
10:09 22.4 °C 18 °C 1019.0 hPa Este 0.4 km/h 5.6 km/h 76.3% 0.0 mm
10:14 22.8 °C 18.1 °C 1019.0 hPa Este 2.2 km/h 4.8 km/h 74.9% 0.0 mm
10:19 23.1 °C 18.1 °C 1019.2 hPa NE 2.4 km/h 7.4 km/h 73.6% 0.0 mm
10:24 23.3 °C 18.1 °C 1019.2 hPa NNO 2.9 km/h 8 km/h 72.8% 0.0 mm
10:29 23.3 °C 18.1 °C 1019.2 hPa NNE 3.2 km/h 8 km/h 72.5% 0.0 mm
10:34 23.4 °C 18.1 °C 1019.2 hPa NNE 4.7 km/h 8.7 km/h 72% 0.0 mm
10:39 23.5 °C 18.1 °C 1019.2 hPa NE 4.7 km/h 9.7 km/h 72% 0.0 mm
10:44 23.4 °C 18.1 °C 1019.2 hPa NNE 5 km/h 12.2 km/h 72.2% 0.0 mm
10:49 23.4 °C 18.2 °C 1019.2 hPa NE 5.1 km/h 13 km/h 72.8% 0.0 mm
10:54 23.4 °C 18.3 °C 1019.1 hPa NE 5.8 km/h 11.1 km/h 73.2% 0.0 mm
10:59 23.3 °C 18.3 °C 1019.1 hPa NE 5.9 km/h 11.3 km/h 73.8% 0.0 mm
11:04 23.4 °C 18.4 °C 1019.2 hPa NE 6.4 km/h 11.3 km/h 73.4% 0.0 mm
11:09 23.5 °C 18.4 °C 1019.2 hPa NE 6.5 km/h 11.3 km/h 73% 0.0 mm
11:14 23.7 °C 18.5 °C 1019.2 hPa NE 6.5 km/h 11.3 km/h 72.7% 0.0 mm
11:19 23.9 °C 18.4 °C 1019.2 hPa ENE 6.2 km/h 11.3 km/h 71.6% 0.0 mm
11:24 24.1 °C 18.4 °C 1019.2 hPa ENE 5 km/h 9.7 km/h 70.7% 0.0 mm
11:29 24.3 °C 18.5 °C 1019.2 hPa NE 4.6 km/h 8.4 km/h 69.9% 0.0 mm
11:34 24.7 °C 18.3 °C 1019.2 hPa ENE 2.9 km/h 10 km/h 67.6% 0.0 mm
11:39 24.7 °C 18 °C 1019.2 hPa SSE 3.3 km/h 9.7 km/h 66.1% 0.0 mm
11:44 24.7 °C 18 °C 1019.2 hPa SO 5 km/h 9.5 km/h 66% 0.0 mm
11:49 24.7 °C 17.9 °C 1019.2 hPa SO 5 km/h 9.7 km/h 66% 0.0 mm
11:54 24.4 °C 17.7 °C 1019.2 hPa SO 5 km/h 10 km/h 66.2% 0.0 mm
11:59 24.5 °C 17.9 °C 1019.2 hPa Oeste 5.2 km/h 11.9 km/h 66.8% 0.0 mm
12:04 24.7 °C 17.7 °C 1019.2 hPa OSO 5.8 km/h 11.3 km/h 65.3% 0.0 mm
12:09 24.8 °C 17.6 °C 1019.1 hPa Oeste 5.6 km/h 11.3 km/h 64.5% 0.0 mm
12:14 24.7 °C 17.4 °C 1019.1 hPa ONO 4.7 km/h 11.1 km/h 64% 0.0 mm
12:19 24.7 °C 17.4 °C 1019.1 hPa NO 4.8 km/h 11.3 km/h 64% 0.0 mm
12:24 24.7 °C 17.4 °C 1019.0 hPa NO 5.8 km/h 8.4 km/h 64% 0.0 mm
12:29 24.7 °C 17.4 °C 1019.0 hPa NNO 5.6 km/h 8 km/h 64% 0.0 mm
12:34 24.7 °C 17.4 °C 1019.0 hPa North 4.7 km/h 8 km/h 64% 0.0 mm
12:39 24.8 °C 17.5 °C 1018.8 hPa NO 4.4 km/h 8.4 km/h 64% 0.0 mm
12:44 24.8 °C 17.3 °C 1018.8 hPa ONO 3.2 km/h 8.4 km/h 63% 0.0 mm
12:49 24.9 °C 17.4 °C 1018.8 hPa ONO 3.2 km/h 8.4 km/h 62.9% 0.0 mm
12:54 25.1 °C 17.3 °C 1018.6 hPa Este 2.9 km/h 9.3 km/h 61.9% 0.0 mm
12:59 25.2 °C 17.2 °C 1018.6 hPa SE 3.1 km/h 9.7 km/h 61% 0.0 mm
13:04 25.2 °C 17.3 °C 1018.6 hPa NE 3.9 km/h 13.7 km/h 61.7% 0.0 mm
13:09 25.1 °C 17.3 °C 1018.4 hPa ENE 4.3 km/h 14.5 km/h 62% 0.0 mm
13:14 25.1 °C 17.4 °C 1018.4 hPa NE 6.4 km/h 11.3 km/h 62.5% 0.0 mm
13:19 25.2 °C 17.4 °C 1018.4 hPa ENE 6 km/h 13 km/h 61.9% 0.0 mm
13:24 25.5 °C 17.4 °C 1018.1 hPa ENE 3.9 km/h 15.6 km/h 60.7% 0.0 mm
13:29 25.7 °C 17.2 °C 1018.1 hPa NE 4.8 km/h 16.1 km/h 59.5% 0.0 mm
13:34 25.6 °C 17.1 °C 1018.1 hPa NE 8.4 km/h 17.2 km/h 59.5% 0.0 mm
13:39 25.6 °C 17.1 °C 1017.8 hPa NE 8.6 km/h 17.7 km/h 59.3% 0.0 mm
13:44 25.7 °C 17.1 °C 1017.8 hPa NE 9.5 km/h 19 km/h 59% 0.0 mm
13:49 25.8 °C 17 °C 1017.8 hPa NE 9.4 km/h 19.3 km/h 58.6% 0.0 mm
13:54 25.9 °C 16.9 °C 1017.7 hPa ENE 8.7 km/h 17.2 km/h 57.9% 0.0 mm
13:59 25.9 °C 16.9 °C 1017.7 hPa Este 8.5 km/h 17.7 km/h 57.4% 0.0 mm
14:04 25.8 °C 16.9 °C 1017.7 hPa Este 7.6 km/h 15.6 km/h 58% 0.0 mm
14:09 25.8 °C 17.2 °C 1017.6 hPa ESE 7.7 km/h 16.1 km/h 59.1% 0.0 mm
14:14 25.8 °C 17.2 °C 1017.6 hPa ESE 8.4 km/h 19 km/h 59% 0.0 mm
14:19 25.8 °C 17.2 °C 1017.6 hPa SE 8.7 km/h 19.3 km/h 59% 0.0 mm
14:24 25.8 °C 17.2 °C 1017.3 hPa ESE 10.3 km/h 22.5 km/h 59% 0.0 mm
14:29 25.8 °C 17 °C 1017.3 hPa ESE 10.6 km/h 22.5 km/h 58.4% 0.0 mm
14:34 25.7 °C 17 °C 1017.3 hPa ESE 11.9 km/h 22.5 km/h 58.6% 0.0 mm
14:39 25.7 °C 16.8 °C 1017.1 hPa ESE 11.9 km/h 22.5 km/h 58.2% 0.0 mm
14:44 25.7 °C 16.8 °C 1017.1 hPa ESE 11.9 km/h 22.5 km/h 58.1% 0.0 mm
14:49 25.7 °C 17.1 °C 1017.1 hPa SE 11.6 km/h 19.3 km/h 58.9% 0.0 mm
14:54 25.7 °C 17.3 °C 1016.9 hPa SE 10.3 km/h 19.3 km/h 59.8% 0.0 mm
14:59 25.8 °C 17.3 °C 1016.9 hPa SE 10 km/h 18.5 km/h 59.5% 0.0 mm
15:04 25.9 °C 17.1 °C 1016.9 hPa SE 8.7 km/h 21.7 km/h 58.5% 0.0 mm
15:09 25.9 °C 17 °C 1016.7 hPa SSE 9.2 km/h 22.5 km/h 58% 0.0 mm
15:14 25.9 °C 17 °C 1016.7 hPa SE 11.1 km/h 22.5 km/h 57.7% 0.0 mm
15:19 26.1 °C 16.8 °C 1016.7 hPa SE 10.8 km/h 19.8 km/h 56.7% 0.0 mm
15:24 26.3 °C 17 °C 1016.7 hPa SSE 9.5 km/h 24.1 km/h 56.7% 0.0 mm
15:29 26.3 °C 17.1 °C 1016.7 hPa SE 10.1 km/h 26.2 km/h 57% 0.0 mm
15:34 26.5 °C 17.1 °C 1016.7 hPa SSE 13 km/h 25.9 km/h 56.3% 0.0 mm
15:39 26.6 °C 17.2 °C 1016.6 hPa SE 12.9 km/h 25.7 km/h 56.6% 0.0 mm
15:44 26.5 °C 16.9 °C 1016.6 hPa SE 12.2 km/h 25.9 km/h 55.8% 0.0 mm
15:49 26.3 °C 16.9 °C 1016.6 hPa SSE 12.4 km/h 25.7 km/h 56.3% 0.0 mm
15:54 26.4 °C 16.9 °C 1016.5 hPa SE 13 km/h 24.1 km/h 56.2% 0.0 mm
15:59 26.4 °C 16.9 °C 1016.5 hPa SSE 13.2 km/h 24.5 km/h 56% 0.0 mm
16:04 26.5 °C 17.1 °C 1016.5 hPa SE 13.7 km/h 24.1 km/h 56.1% 0.0 mm
16:09 26.6 °C 17.1 °C 1016.4 hPa SE 13.7 km/h 22.2 km/h 56% 0.0 mm
16:14 26.8 °C 17.2 °C 1016.4 hPa SSE 13.7 km/h 22.5 km/h 55.8% 0.0 mm
16:19 26.8 °C 17.1 °C 1016.4 hPa SSE 13.3 km/h 22.5 km/h 55.3% 0.0 mm
16:24 26.8 °C 17 °C 1016.2 hPa SSE 11.9 km/h 22.2 km/h 55% 0.0 mm
16:29 26.8 °C 16.9 °C 1016.2 hPa SSE 11.9 km/h 22.5 km/h 54.8% 0.0 mm
16:34 26.7 °C 16.8 °C 1016.2 hPa ESE 11.9 km/h 20.9 km/h 54.7% 0.0 mm
16:39 26.6 °C 16.8 °C 1016.1 hPa SE 11.9 km/h 20.4 km/h 54.9% 0.0 mm
16:44 26.6 °C 16.8 °C 1016.1 hPa ESE 11.9 km/h 20.9 km/h 54.9% 0.0 mm
16:49 26.7 °C 16.8 °C 1016.1 hPa SSE 11.7 km/h 19.3 km/h 54.4% 0.0 mm
16:54 26.8 °C 16.7 °C 1016.1 hPa SSE 10.3 km/h 19.3 km/h 54% 0.0 mm
16:59 26.7 °C 16.7 °C 1016.1 hPa ESE 10.5 km/h 18.5 km/h 54.2% 0.0 mm
17:04 26.6 °C 16.6 °C 1016.1 hPa ESE 11.1 km/h 20.4 km/h 54.3% 0.0 mm
17:09 26.4 °C 16.7 °C 1016.0 hPa SE 11.5 km/h 24.5 km/h 54.9% 0.0 mm
17:14 26.3 °C 16.6 °C 1016.0 hPa ESE 13.7 km/h 24.1 km/h 55% 0.0 mm
17:19 26.3 °C 16.6 °C 1016.0 hPa SE 13.9 km/h 24.1 km/h 55.2% 0.0 mm
17:24 26.3 °C 16.6 °C 1015.9 hPa SE 14.8 km/h 20.9 km/h 55.2% 0.0 mm
17:29 26.3 °C 16.7 °C 1015.9 hPa ESE 14.6 km/h 20.9 km/h 55.6% 0.0 mm
17:34 26.3 °C 16.8 °C 1015.9 hPa SE 13.7 km/h 23.7 km/h 55.7% 0.0 mm
17:39 26.2 °C 16.7 °C 1015.8 hPa SE 13.7 km/h 24.5 km/h 56% 0.0 mm
17:44 26.1 °C 16.7 °C 1015.8 hPa ESE 13.7 km/h 24.1 km/h 56% 0.0 mm
17:49 26.1 °C 16.7 °C 1015.8 hPa ESE 13.7 km/h 25.1 km/h 56.3% 0.0 mm
17:54 25.9 °C 16.7 °C 1015.7 hPa ESE 13.7 km/h 25.9 km/h 56.9% 0.0 mm
17:59 25.8 °C 16.7 °C 1015.7 hPa SE 13.7 km/h 25.7 km/h 57.3% 0.0 mm
18:04 25.9 °C 16.7 °C 1015.8 hPa ESE 14 km/h 19.8 km/h 57% 0.0 mm
18:09 25.8 °C 16.7 °C 1015.8 hPa SE 13.7 km/h 24.1 km/h 57% 0.0 mm
18:14 25.8 °C 16.7 °C 1015.8 hPa SE 11.9 km/h 24.1 km/h 57.1% 0.0 mm
18:19 25.7 °C 16.8 °C 1015.8 hPa SE 12 km/h 22.5 km/h 57.7% 0.0 mm
18:24 25.7 °C 16.7 °C 1015.8 hPa SE 13 km/h 22.5 km/h 57.6% 0.0 mm
18:29 25.7 °C 16.7 °C 1015.8 hPa SE 12.8 km/h 22.5 km/h 57.6% 0.0 mm
18:34 25.6 °C 16.7 °C 1015.8 hPa SE 11.9 km/h 22.5 km/h 58% 0.0 mm
18:39 25.5 °C 16.6 °C 1015.7 hPa SE 12 km/h 20.9 km/h 58% 0.0 mm
18:44 25.4 °C 16.6 °C 1015.7 hPa SE 13 km/h 20.9 km/h 58.3% 0.0 mm
18:49 25.3 °C 16.7 °C 1015.7 hPa ESE 12.8 km/h 19.3 km/h 59% 0.0 mm
18:54 25.2 °C 16.6 °C 1015.7 hPa SE 11.9 km/h 24.5 km/h 59% 0.0 mm
18:59 25 °C 16.5 °C 1015.7 hPa SE 12.3 km/h 24.1 km/h 59.3% 0.0 mm
19:04 24.9 °C 16.6 °C 1015.8 hPa SE 13.7 km/h 22.5 km/h 60% 0.0 mm
19:09 24.8 °C 16.5 °C 1015.8 hPa SE 13.2 km/h 24.1 km/h 60% 0.0 mm
19:14 24.7 °C 16.6 °C 1015.8 hPa SE 11.1 km/h 24.1 km/h 60.8% 0.0 mm
19:19 24.6 °C 16.5 °C 1015.8 hPa ESE 11.1 km/h 20.9 km/h 61% 0.0 mm
19:24 24.4 °C 16.6 °C 1015.8 hPa SE 11.1 km/h 16.7 km/h 61.8% 0.0 mm
19:29 24.3 °C 16.5 °C 1015.8 hPa SE 11 km/h 17.2 km/h 62% 0.0 mm
19:34 24.1 °C 16.4 °C 1016.0 hPa SE 10.3 km/h 18.5 km/h 62.2% 0.0 mm
19:39 23.9 °C 16.5 °C 1016.0 hPa SE 10.8 km/h 20.9 km/h 63% 0.0 mm
19:44 23.9 °C 16.4 °C 1016.0 hPa SE 13 km/h 20.9 km/h 63% 0.0 mm
19:49 23.8 °C 16.4 °C 1016.1 hPa SE 12.4 km/h 19.3 km/h 63% 0.0 mm
19:54 23.8 °C 16.3 °C 1016.1 hPa SE 9.5 km/h 16.1 km/h 63% 0.0 mm
19:59 23.7 °C 16.3 °C 1016.1 hPa SE 9.5 km/h 16.1 km/h 63.2% 0.0 mm
20:04 23.6 °C 16.4 °C 1016.1 hPa SE 9.5 km/h 14.5 km/h 64% 0.0 mm
20:09 23.5 °C 16.3 °C 1016.1 hPa SE 9.2 km/h 13 km/h 64% 0.0 mm
20:14 23.5 °C 16.3 °C 1016.1 hPa SE 7.6 km/h 13 km/h 64.2% 0.0 mm
20:19 23.4 °C 16.4 °C 1016.1 hPa ESE 7.6 km/h 12.9 km/h 64.8% 0.0 mm
20:24 23.3 °C 16.4 °C 1016.1 hPa SE 7.6 km/h 14.8 km/h 65% 0.0 mm
20:29 23.2 °C 16.3 °C 1016.1 hPa ESE 7.9 km/h 14.8 km/h 65.3% 0.0 mm
20:34 23.1 °C 16.4 °C 1016.2 hPa SE 9.5 km/h 14.8 km/h 66% 0.0 mm
20:39 23 °C 16.3 °C 1016.2 hPa ESE 9.1 km/h 14.5 km/h 66% 0.0 mm
20:44 22.9 °C 16.3 °C 1016.2 hPa ESE 7.6 km/h 13 km/h 66.1% 0.0 mm
20:49 22.8 °C 16.4 °C 1016.2 hPa ESE 7.7 km/h 13.7 km/h 67% 0.0 mm
20:54 22.7 °C 16.3 °C 1016.2 hPa SE 8.4 km/h 14.5 km/h 67% 0.0 mm
20:59 22.7 °C 16.3 °C 1016.2 hPa SE 8 km/h 9.7 km/h 67% 0.0 mm
21:04 22.7 °C 16.3 °C 1016.3 hPa SE 6.5 km/h 10 km/h 67.3% 0.0 mm
21:09 22.6 °C 16.4 °C 1016.3 hPa SE 6.3 km/h 10 km/h 68% 0.0 mm
21:14 22.4 °C 16.2 °C 1016.3 hPa ESE 5.8 km/h 9.7 km/h 68% 0.0 mm
21:19 22.4 °C 16.2 °C 1016.3 hPa ESE 5.6 km/h 9.7 km/h 68% 0.0 mm
21:24 22.4 °C 16.2 °C 1016.2 hPa ESE 5 km/h 11.1 km/h 68% 0.0 mm
21:29 22.4 °C 16.2 °C 1016.2 hPa Este 4.8 km/h 11.3 km/h 68% 0.0 mm
21:34 22.3 °C 16.2 °C 1016.2 hPa Este 3.9 km/h 7.4 km/h 68.1% 0.0 mm
21:39 22.3 °C 16.3 °C 1016.2 hPa NE 3.9 km/h 8 km/h 69% 0.0 mm
21:44 22.2 °C 16.2 °C 1016.2 hPa NE 3.9 km/h 8 km/h 69% 0.0 mm
21:49 22.2 °C 16.2 °C 1016.3 hPa NE 3.9 km/h 8 km/h 69% 0.0 mm
21:54 22.2 °C 16.2 °C 1016.3 hPa NNE 3.9 km/h 6.4 km/h 69% 0.0 mm
21:59 22.2 °C 16.2 °C 1016.3 hPa NE 3.6 km/h 7.4 km/h 69.1% 0.0 mm
22:04 22.2 °C 16.2 °C 1016.3 hPa ENE 2.9 km/h 8 km/h 69% 0.0 mm
22:09 22.2 °C 16.2 °C 1016.3 hPa ENE 2.9 km/h 5.8 km/h 69% 0.0 mm
22:14 22.1 °C 16.2 °C 1016.3 hPa ESE 2.9 km/h 7.4 km/h 69% 0.0 mm
22:19 22.1 °C 16.2 °C 1016.3 hPa ESE 3.2 km/h 8 km/h 69.3% 0.0 mm
22:24 22.1 °C 16.4 °C 1016.3 hPa ESE 4.7 km/h 8 km/h 70% 0.0 mm
22:29 22 °C 16.3 °C 1016.3 hPa SE 4.7 km/h 9.3 km/h 70% 0.0 mm
22:34 21.9 °C 16.2 °C 1016.4 hPa ESE 4.7 km/h 9.7 km/h 70% 0.0 mm
22:39 21.9 °C 16.3 °C 1016.4 hPa ESE 4.5 km/h 8 km/h 70.5% 0.0 mm
22:44 21.9 °C 16.4 °C 1016.4 hPa ESE 3.9 km/h 8 km/h 71% 0.0 mm
22:49 21.9 °C 16.4 °C 1016.5 hPa ESE 3.7 km/h 4.8 km/h 71% 0.0 mm
22:54 21.8 °C 16.3 °C 1016.5 hPa ESE 2.9 km/h 3.7 km/h 71% 0.0 mm
22:59 21.8 °C 16.3 °C 1016.5 hPa ESE 2.2 km/h 5 km/h 71% 0.0 mm
23:04 21.7 °C 16.3 °C 1016.5 hPa Calm   5.6 km/h 71.5% 0.0 mm
23:09 21.7 °C 16.4 °C 1016.3 hPa ESE 0.4 km/h 4.8 km/h 72% 0.0 mm
23:14 21.7 °C 16.4 °C 1016.3 hPa ESE 2.2 km/h 3.7 km/h 72% 0.0 mm
23:19 21.6 °C 16.3 °C 1016.5 hPa ESE 1.8 km/h 3.9 km/h 72% 0.0 mm
23:24 21.6 °C 16.4 °C 1016.5 hPa Calm   5.8 km/h 72.5% 0.0 mm
23:29 21.5 °C 16.5 °C 1016.5 hPa ESE 0.5 km/h 6.4 km/h 73% 0.0 mm
23:34 21.4 °C 16.3 °C 1016.6 hPa ESE 2.9 km/h 4.8 km/h 73% 0.0 mm
23:39 21.4 °C 16.4 °C 1016.6 hPa ESE 2.4 km/h 5.6 km/h 73.4% 0.0 mm
23:44 21.3 °C 16.4 °C 1016.6 hPa Calm   5.6 km/h 73.4% 0.0 mm
23:49 21.3 °C 16.5 °C 1016.6 hPa ESE 0.5 km/h 5.6 km/h 74% 0.0 mm
23:54 21.2 °C 16.4 °C 1016.6 hPa ESE 3.2 km/h 7.4 km/h 74% 0.0 mm
23:59 21.1 °C 16.3 °C 1016.6 hPa NO 3.4 km/h 8 km/h 74.2% 0.0 mm
Murcia-Puente Tocinos, España
Compliments of Weather Underground - 3 mb

La estación de MeteoMurcia.com, publica sus datos en los siguientes proyectos:

Weather Underground PWS IMURCIAP2 Meteoclimatic www.awekas.at

W3Counter
Web Analytics